Terminal Aerodrome Forecast
Issued by NWS Duluth, MN

Home | Current Version | Previous Version | Text Only | Print | Product List | Glossary On
Versions: 1 2 3 4 5 6 7 8 9 10 11 12 13 14 15 16 17 18 19 20 21 22 23 24 25 26 27 28 29
000
FTUS43 KDLH 251739
TAFDLH
TAF
KDLH 251739Z 2518/2618 36005KT P6SM -SHRA OVC012
      TEMPO 2518/2520 OVC008
     FM260400 04006KT 4SM -SHRA BR OVC008
     FM260600 06007KT 1 1/2SM -SHRA BR OVC004
     FM261200 06006KT 3SM -SHRA BR OVC004=

USA.gov is the U.S. government's official web portal to all federal, state and local government web resources and services.